Time;durP1;ratioP1;P1;durP2;ratioP2;P2;SDS_P1;SDS_P2;PMS_P1;PMS_P2;Temp;Humidity;BMP_temperature;BMP_pressure;BME280_temperature;BME280_humidity;BME280_pressure;Samples;Min_cycle;Max_cycle;Signal;HPM_P1;HPM_P2
2022/09/10 00:01:12;;;;;;;1999.90;999.90;;;16.40;99.90;;;;;;5032228;28;20442;-66
2022/09/10 00:03:38;;;;;;;1999.90;999.90;;;16.40;99.90;;;;;;5032387;28;20513;-66
2022/09/10 00:06:04;;;;;;;1999.90;999.90;;;16.40;99.90;;;;;;5032205;28;20419;-66
2022/09/10 00:08:30;;;;;;;1999.90;999.90;;;16.50;99.90;;;;;;5032365;28;20179;-66
2022/09/10 00:10:56;;;;;;;1999.90;999.90;;;16.50;99.90;;;;;;5032268;28;20431;-66
2022/09/10 00:13:22;;;;;;;1999.90;999.90;;;16.50;99.90;;;;;;5032176;28;20168;-66
2022/09/10 00:15:51;;;;;;;1999.90;999.90;;;16.50;99.90;;;;;;5032329;28;20419;-66
2022/09/10 00:18:19;;;;;;;1999.90;999.90;;;16.60;99.90;;;;;;5032507;28;20409;-67
2022/09/10 00:20:50;;;;;;;1999.90;999.90;;;16.60;99.90;;;;;;5032506;28;20462;-66
2022/09/10 00:23:18;;;;;;;1999.90;999.90;;;16.70;99.90;;;;;;5032039;28;20410;-66
2022/09/10 00:25:45;;;;;;;1999.90;999.90;;;16.70;99.90;;;;;;5032088;28;20810;-67
2022/09/10 00:28:12;;;;;;;1999.90;999.90;;;16.60;99.90;;;;;;5032676;28;20450;-67
2022/09/10 00:30:45;;;;;;;1999.90;999.90;;;16.60;99.90;;;;;;5032793;28;20459;-66
2022/09/10 00:33:12;;;;;;;1999.90;999.90;;;16.60;99.90;;;;;;5032075;28;20399;-66
2022/09/10 00:35:39;;;;;;;1999.90;999.90;;;16.60;99.90;;;;;;5033222;28;20433;-67
2022/09/10 00:38:05;;;;;;;1999.90;999.90;;;16.60;99.90;;;;;;5032779;28;20529;-66
2022/09/10 00:40:31;;;;;;;1999.90;999.90;;;16.60;99.90;;;;;;5032974;28;20437;-67
2022/09/10 00:42:57;;;;;;;1999.90;999.90;;;16.60;99.90;;;;;;5035080;28;20417;-66
2022/09/10 00:45:28;;;;;;;1999.90;999.90;;;16.60;99.90;;;;;;5038480;28;20912;-66
2022/09/10 00:48:01;;;;;;;1999.90;999.90;;;16.50;99.90;;;;;;5039082;28;20175;-67
2022/09/10 00:50:29;;;;;;;1999.90;999.90;;;16.60;99.90;;;;;;5022574;28;20505;-67
2022/09/10 00:53:03;;;;;;;1999.90;999.90;;;16.50;99.90;;;;;;5039778;28;20915;-66
2022/09/10 00:55:30;;;;;;;1999.90;999.90;;;16.60;99.90;;;;;;5038991;28;20424;-67
2022/09/10 00:57:59;;;;;;;1999.90;999.90;;;16.50;99.90;;;;;;5038043;28;20452;-66
2022/09/10 01:00:24;;;;;;;1999.90;999.90;;;16.50;99.90;;;;;;5038043;28;20453;-67
2022/09/10 01:02:51;;;;;;;1999.90;999.90;;;16.60;99.90;;;;;;5038474;28;20452;-66
2022/09/10 01:05:18;;;;;;;1999.90;999.90;;;16.60;99.90;;;;;;5038295;28;20171;-66
2022/09/10 01:07:43;;;;;;;1999.90;999.90;;;16.60;99.90;;;;;;5038107;28;20818;-67
2022/09/10 01:10:20;;;;;;;1999.90;999.90;;;16.60;99.90;;;;;;5038210;28;20478;-67
2022/09/10 01:13:04;;;;;;;1999.90;999.90;;;16.60;99.90;;;;;;5038566;28;20168;-67
2022/09/10 01:16:13;;;;;;;1999.90;999.90;;;16.60;99.90;;;;;;5040434;28;20419;-67
2022/09/10 01:18:49;;;;;;;1999.90;999.90;;;16.60;99.90;;;;;;4959537;28;20428;-67
2022/09/10 01:21:21;;;;;;;1999.90;999.90;;;16.70;99.90;;;;;;5028928;28;20488;-67
2022/09/10 01:24:08;;;;;;;1999.90;999.90;;;16.70;99.90;;;;;;5039129;28;20449;-67
2022/09/10 01:27:00;;;;;;;1999.90;999.90;;;16.70;99.90;;;;;;5038498;28;20406;-67
2022/09/10 01:29:51;;;;;;;1999.90;999.90;;;16.70;99.90;;;;;;5039261;28;20937;-66
2022/09/10 01:32:27;;;;;;;1999.90;999.90;;;16.70;99.90;;;;;;5038666;28;20398;-67
2022/09/10 01:35:04;;;;;;;1999.90;999.90;;;16.70;99.90;;;;;;5038896;28;20879;-67
2022/09/10 01:37:32;;;;;;;1999.90;999.90;;;16.70;99.90;;;;;;5038176;28;20446;-67
2022/09/10 01:39:59;;;;;;;1999.90;999.90;;;16.60;99.90;;;;;;5038113;28;20448;-66
2022/09/10 01:42:26;;;;;;;1999.90;999.90;;;16.60;99.90;;;;;;5037939;28;20395;-66
2022/09/10 01:44:54;;;;;;;1999.90;999.90;;;16.60;99.90;;;;;;5037925;28;20406;-66
2022/09/10 01:47:41;;;;;;;1999.90;999.90;;;16.60;99.90;;;;;;5037615;28;20415;-66
2022/09/10 01:50:29;;;;;;;1999.90;999.90;;;16.70;99.90;;;;;;5039178;28;20816;-67
2022/09/10 01:53:13;;;;;;;1999.90;999.90;;;16.60;99.90;;;;;;5039798;28;20421;-67
2022/09/10 01:56:09;;;;;;;1999.90;999.90;;;16.60;99.90;;;;;;5035796;28;20493;-67
2022/09/10 01:58:38;;;;;;;1999.90;999.90;;;16.60;99.90;;;;;;5035669;28;20392;-67
2022/09/10 02:01:22;;;;;;;1999.90;999.90;;;16.60;99.90;;;;;;5034631;28;20454;-67
2022/09/10 02:03:54;;;;;;;1999.90;999.90;;;16.50;99.90;;;;;;5036774;28;20388;-67
2022/09/10 02:06:22;;;;;;;1999.90;999.90;;;16.60;99.90;;;;;;5034793;28;20401;-66
2022/09/10 02:08:52;;;;;;;1999.90;999.90;;;16.60;99.90;;;;;;5035370;28;20449;-66
2022/09/10 02:11:18;;;;;;;1999.90;999.90;;;16.60;99.90;;;;;;5034556;28;20426;-66
2022/09/10 02:13:43;;;;;;;1999.90;999.90;;;16.60;99.90;;;;;;5034368;28;20407;-66
2022/09/10 02:16:27;;;;;;;1999.90;999.90;;;16.70;99.90;;;;;;5034338;28;20228;-66
2022/09/10 02:18:55;;;;;;;1999.90;999.90;;;16.70;99.90;;;;;;5034403;28;20243;-66
2022/09/10 02:21:21;;;;;;;1999.90;999.90;;;16.70;99.90;;;;;;5034262;28;20423;-66
2022/09/10 02:23:52;;;;;;;1999.90;999.90;;;16.70;99.90;;;;;;5035094;28;20395;-66
2022/09/10 02:26:18;;;;;;;1999.90;999.90;;;16.80;99.90;;;;;;5036910;28;20923;-67
2022/09/10 02:28:44;;;;;;;1999.90;999.90;;;16.70;99.90;;;;;;5037226;28;20424;-67
2022/09/10 02:31:10;;;;;;;1999.90;999.90;;;16.80;99.90;;;;;;5037069;28;20507;-67
2022/09/10 02:33:36;;;;;;;1999.90;999.90;;;16.80;99.90;;;;;;5036163;28;20499;-67
2022/09/10 02:36:02;;;;;;;1999.90;999.90;;;16.80;99.90;;;;;;5036706;28;20488;-67
2022/09/10 02:38:28;;;;;;;1999.90;999.90;;;16.70;99.90;;;;;;5035572;28;20178;-67
2022/09/10 02:40:55;;;;;;;1999.90;999.90;;;16.70;99.90;;;;;;5035564;28;20430;-67
2022/09/10 02:43:20;;;;;;;1999.90;999.90;;;16.70;99.90;;;;;;5036525;28;20416;-67
2022/09/10 02:45:47;;;;;;;1999.90;999.90;;;16.70;99.90;;;;;;5036524;28;20401;-67
2022/09/10 02:48:13;;;;;;;1999.90;999.90;;;16.60;99.90;;;;;;5036399;28;20166;-67
2022/09/10 02:50:38;;;;;;;1999.90;999.90;;;16.50;99.90;;;;;;5034587;28;20987;-67
2022/09/10 02:53:05;;;;;;;1999.90;999.90;;;16.50;99.90;;;;;;5033873;28;20173;-66
2022/09/10 02:55:31;;;;;;;1999.90;999.90;;;16.50;99.90;;;;;;5033652;28;20289;-66
2022/09/10 02:57:57;;;;;;;1999.90;999.90;;;16.50;99.90;;;;;;5033310;28;20915;-66
2022/09/10 03:00:23;;;;;;;1999.90;999.90;;;16.50;99.90;;;;;;5033578;28;20697;-66
2022/09/10 03:02:49;;;;;;;1999.90;999.90;;;16.60;99.90;;;;;;5033560;28;20411;-66
2022/09/10 03:05:15;;;;;;;1999.90;999.90;;;16.60;99.90;;;;;;5033300;28;20407;-67
2022/09/10 03:07:42;;;;;;;1999.90;999.90;;;16.60;99.90;;;;;;5033368;28;20477;-67
2022/09/10 03:10:09;;;;;;;1999.90;999.90;;;16.60;99.90;;;;;;5033774;28;20430;-67
2022/09/10 03:12:35;;;;;;;1999.90;999.90;;;16.60;99.90;;;;;;5033980;28;20412;-67
2022/09/10 03:15:00;;;;;;;1999.90;999.90;;;16.60;99.90;;;;;;5033992;28;20437;-67
2022/09/10 03:17:26;;;;;;;1999.90;999.90;;;16.60;99.90;;;;;;5033830;28;21012;-67
2022/09/10 03:19:52;;;;;;;1999.90;999.90;;;16.60;99.90;;;;;;5034258;28;20252;-67
2022/09/10 03:22:17;;;;;;;1999.90;999.90;;;16.70;99.90;;;;;;5033970;28;20534;-67
2022/09/10 03:24:43;;;;;;;1999.90;999.90;;;16.80;99.90;;;;;;5033637;28;20549;-66
2022/09/10 03:27:09;;;;;;;1999.90;999.90;;;16.80;99.90;;;;;;5032954;28;20739;-66
2022/09/10 03:29:35;;;;;;;1999.90;999.90;;;16.70;99.90;;;;;;5034927;28;20172;-66
2022/09/10 03:32:01;;;;;;;1999.90;999.90;;;16.60;99.90;;;;;;5033012;28;20188;-66
2022/09/10 03:34:27;;;;;;;1999.90;999.90;;;16.60;99.90;;;;;;5032983;28;20412;-66
2022/09/10 03:36:53;;;;;;;1999.90;999.90;;;16.60;99.90;;;;;;5032534;28;20783;-66
2022/09/10 03:39:18;;;;;;;1999.90;999.90;;;16.60;99.90;;;;;;5032818;28;20164;-67
2022/09/10 03:41:45;;;;;;;1999.90;999.90;;;16.60;99.90;;;;;;5033717;28;20444;-67
2022/09/10 03:44:11;;;;;;;1999.90;999.90;;;16.60;99.90;;;;;;5033440;28;20172;-67
2022/09/10 03:46:37;;;;;;;1999.90;999.90;;;16.60;99.90;;;;;;5034364;28;20414;-67
2022/09/10 03:49:04;;;;;;;1999.90;999.90;;;16.70;99.90;;;;;;5033628;28;20419;-66
2022/09/10 03:51:30;;;;;;;1999.90;999.90;;;16.70;99.90;;;;;;5032505;28;20633;-66
2022/09/10 03:53:58;;;;;;;1999.90;999.90;;;16.70;99.90;;;;;;5033756;28;20545;-67
2022/09/10 03:56:24;;;;;;;1999.90;999.90;;;16.60;99.90;;;;;;5034323;28;20215;-67
2022/09/10 03:58:50;;;;;;;1999.90;999.90;;;16.60;99.90;;;;;;5033981;28;20903;-67
2022/09/10 04:01:17;;;;;;;1999.90;999.90;;;16.60;99.90;;;;;;5033474;28;20454;-66
2022/09/10 04:03:43;;;;;;;1999.90;999.90;;;16.70;99.90;;;;;;5034576;28;20481;-67
2022/09/10 04:06:10;;;;;;;1999.90;999.90;;;16.60;99.90;;;;;;5034706;28;20405;-67
2022/09/10 04:08:36;;;;;;;1999.90;999.90;;;16.70;99.90;;;;;;5035502;28;20179;-67
2022/09/10 04:11:03;;;;;;;1999.90;999.90;;;16.70;99.90;;;;;;5034279;28;20956;-66
2022/09/10 04:13:30;;;;;;;1999.90;999.90;;;16.70;99.90;;;;;;5032670;28;20926;-66
2022/09/10 04:15:56;;;;;;;1999.90;999.90;;;16.70;99.90;;;;;;5033735;28;20951;-67
2022/09/10 04:18:22;;;;;;;1999.90;999.90;;;16.70;99.90;;;;;;5034062;28;20482;-66
2022/09/10 04:20:48;;;;;;;1999.90;999.90;;;16.60;99.90;;;;;;5033481;28;20652;-67
2022/09/10 04:23:15;;;;;;;1999.90;999.90;;;16.70;99.90;;;;;;5034547;28;20272;-67
2022/09/10 04:25:40;;;;;;;1999.90;999.90;;;16.70;99.90;;;;;;5033839;28;20414;-67
2022/09/10 04:28:06;;;;;;;1999.90;999.90;;;16.70;99.90;;;;;;5033664;28;20745;-67
2022/09/10 04:30:32;;;;;;;1999.90;999.90;;;16.70;99.90;;;;;;5034514;28;20861;-67
2022/09/10 04:32:57;;;;;;;1999.90;999.90;;;16.70;99.90;;;;;;5034498;28;20209;-67
2022/09/10 04:35:23;;;;;;;1999.90;999.90;;;16.70;99.90;;;;;;5032935;28;20254;-67
2022/09/10 04:37:48;;;;;;;1999.90;999.90;;;16.80;99.90;;;;;;5015942;28;20196;-67
2022/09/10 04:40:14;;;;;;;1999.90;999.90;;;16.80;99.90;;;;;;5033629;28;20214;-67
2022/09/10 04:42:39;;;;;;;1999.90;999.90;;;16.80;99.90;;;;;;5034100;28;20642;-67
2022/09/10 04:45:06;;;;;;;1999.90;999.90;;;16.80;99.90;;;;;;5033779;28;20171;-67
2022/09/10 04:47:32;;;;;;;1999.90;999.90;;;16.80;99.90;;;;;;5032814;28;20175;-67
2022/09/10 04:49:58;;;;;;;1999.90;999.90;;;16.80;99.90;;;;;;5032759;28;20410;-66
2022/09/10 04:52:24;;;;;;;1999.90;999.90;;;16.80;99.90;;;;;;5034009;28;20410;-67
2022/09/10 04:54:49;;;;;;;1999.90;999.90;;;16.80;99.90;;;;;;5034040;28;20235;-67
2022/09/10 04:57:15;;;;;;;1999.90;999.90;;;16.80;99.90;;;;;;5032526;28;20286;-67
2022/09/10 04:59:40;;;;;;;1999.90;999.90;;;16.70;99.90;;;;;;5033783;28;20170;-67
2022/09/10 05:02:08;;;;;;;1999.90;999.90;;;16.70;99.90;;;;;;5032952;28;20198;-67
2022/09/10 05:04:33;;;;;;;1999.90;999.90;;;16.70;99.90;;;;;;5032441;28;20704;-67
2022/09/10 05:07:00;;;;;;;1999.90;999.90;;;16.70;99.90;;;;;;5034171;28;20422;-67
2022/09/10 05:09:30;;;;;;;1999.90;999.90;;;16.70;99.90;;;;;;5033516;28;20403;-67
2022/09/10 05:11:56;;;;;;;1999.90;999.90;;;16.70;99.90;;;;;;5033759;28;20433;-66
2022/09/10 05:14:22;;;;;;;1999.90;999.90;;;16.70;99.90;;;;;;5031630;28;20455;-67
2022/09/10 05:16:47;;;;;;;1999.90;999.90;;;16.70;99.90;;;;;;5031399;28;20442;-66
2022/09/10 05:19:16;;;;;;;1999.90;999.90;;;16.70;99.90;;;;;;5031632;28;20164;-67
2022/09/10 05:21:47;;;;;;;1999.90;999.90;;;16.80;99.90;;;;;;5031528;28;20180;-66
2022/09/10 05:24:13;;;;;;;1999.90;999.90;;;16.80;99.90;;;;;;5031626;28;20434;-66
2022/09/10 05:26:39;;;;;;;1999.90;999.90;;;16.80;99.90;;;;;;5013557;28;20947;-66
2022/09/10 05:29:05;;;;;;;1999.90;999.90;;;16.80;99.90;;;;;;5032827;28;20413;-66
2022/09/10 05:31:32;;;;;;;1999.90;999.90;;;16.90;99.90;;;;;;5035199;28;20436;-66
2022/09/10 05:34:00;;;;;;;1999.90;999.90;;;16.90;99.90;;;;;;5035181;28;20191;-66
2022/09/10 05:36:26;;;;;;;1999.90;999.90;;;16.90;99.90;;;;;;5035138;28;20537;-66
2022/09/10 05:38:53;;;;;;;1999.90;999.90;;;16.90;99.90;;;;;;5035097;28;20481;-66
2022/09/10 05:41:20;;;;;;;1999.90;999.90;;;16.90;99.90;;;;;;5034974;28;20917;-66
2022/09/10 05:43:46;;;;;;;1999.90;999.90;;;17.00;99.90;;;;;;5035073;28;20777;-66
2022/09/10 05:46:11;;;;;;;1999.90;999.90;;;17.00;99.90;;;;;;5034756;28;20417;-66
2022/09/10 05:48:38;;;;;;;1999.90;999.90;;;17.00;99.90;;;;;;5035148;28;20411;-66
2022/09/10 05:51:04;;;;;;;1999.90;999.90;;;17.00;99.90;;;;;;5034943;28;20195;-66
2022/09/10 05:53:29;;;;;;;1999.90;999.90;;;17.00;99.90;;;;;;5034834;28;20412;-66
2022/09/10 05:55:55;;;;;;;1999.90;999.90;;;17.00;99.90;;;;;;5034739;28;20175;-67
2022/09/10 05:58:20;;;;;;;1999.90;999.90;;;17.00;99.90;;;;;;5034656;28;20170;-66
2022/09/10 06:00:49;;;;;;;1999.90;999.90;;;17.00;99.90;;;;;;5034516;28;20575;-66
2022/09/10 06:03:15;;;;;;;1999.90;999.90;;;17.00;99.90;;;;;;5034702;28;20175;-66
2022/09/10 06:05:49;;;;;;;1999.90;999.90;;;17.00;99.90;;;;;;5034636;28;20840;-67
2022/09/10 06:08:15;;;;;;;1999.90;999.90;;;17.00;99.90;;;;;;5034553;28;20411;-66
2022/09/10 06:10:41;;;;;;;1999.90;999.90;;;17.10;99.90;;;;;;5035169;28;20458;-67
2022/09/10 06:13:07;;;;;;;1999.90;999.90;;;17.10;99.90;;;;;;5037236;28;20453;-67
2022/09/10 06:15:34;;;;;;;1999.90;999.90;;;17.10;99.90;;;;;;5037592;28;20411;-67
2022/09/10 06:18:00;;;;;;;1999.90;999.90;;;17.10;99.90;;;;;;5037881;28;20669;-67
2022/09/10 06:20:26;;;;;;;1999.90;999.90;;;17.10;99.90;;;;;;5037885;28;20419;-67
2022/09/10 06:22:53;;;;;;;1999.90;999.90;;;17.10;99.90;;;;;;5037290;28;20816;-67
2022/09/10 06:25:19;;;;;;;1999.90;999.90;;;17.20;99.90;;;;;;5037074;28;20509;-67
2022/09/10 06:27:45;;;;;;;1999.90;999.90;;;17.20;99.90;;;;;;5037448;28;20513;-67
2022/09/10 06:30:11;;;;;;;1999.90;999.90;;;17.20;99.90;;;;;;5036705;28;20280;-67
2022/09/10 06:32:38;;;;;;;1999.90;999.90;;;17.30;99.90;;;;;;5037095;28;20453;-68
2022/09/10 06:35:04;;;;;;;1999.90;999.90;;;17.30;99.90;;;;;;5037305;28;20667;-67
2022/09/10 06:37:33;;;;;;;1999.90;999.90;;;17.30;99.90;;;;;;5036490;28;20449;-67
2022/09/10 06:39:59;;;;;;;1999.90;999.90;;;17.40;99.90;;;;;;5037135;28;20430;-67
2022/09/10 06:42:25;;;;;;;1999.90;999.90;;;17.40;99.90;;;;;;5036274;28;20406;-67
2022/09/10 06:44:52;;;;;;;1999.90;999.90;;;17.40;99.90;;;;;;5036664;28;20417;-67
2022/09/10 06:47:17;;;;;;;1999.90;999.90;;;17.40;99.90;;;;;;5036434;28;20174;-67
2022/09/10 06:49:43;;;;;;;1999.90;999.90;;;17.50;99.90;;;;;;5036345;28;20422;-67
2022/09/10 06:52:10;;;;;;;1999.90;999.90;;;17.40;99.90;;;;;;5036517;28;20232;-67
2022/09/10 06:54:36;;;;;;;1999.90;999.90;;;17.40;99.90;;;;;;5034873;28;20162;-67
2022/09/10 06:57:03;;;;;;;1999.90;999.90;;;17.40;99.90;;;;;;5033489;28;21150;-66
2022/09/10 06:59:30;;;;;;;1999.90;999.90;;;17.40;99.90;;;;;;5033664;28;20171;-67
2022/09/10 07:01:56;;;;;;;1999.90;999.90;;;17.30;99.90;;;;;;5033357;28;20449;-67
2022/09/10 07:04:22;;;;;;;1999.90;999.90;;;17.30;99.90;;;;;;5015764;28;20422;-66
2022/09/10 07:06:47;;;;;;;1999.90;999.90;;;17.30;99.90;;;;;;5033494;28;20406;-67
2022/09/10 07:09:14;;;;;;;1999.90;999.90;;;17.30;99.90;;;;;;5033642;28;20283;-66
2022/09/10 07:11:39;;;;;;;1999.90;999.90;;;17.30;99.90;;;;;;5033226;28;20608;-66
2022/09/10 07:14:05;;;;;;;1999.90;999.90;;;17.30;99.90;;;;;;5033660;28;20429;-66
2022/09/10 07:16:31;;;;;;;1999.90;999.90;;;17.30;99.90;;;;;;5033098;28;20197;-66
2022/09/10 07:18:58;;;;;;;1999.90;999.90;;;17.30;99.90;;;;;;5033315;28;20203;-66
2022/09/10 07:21:26;;;;;;;1999.90;999.90;;;17.30;99.90;;;;;;5033065;28;20191;-66
2022/09/10 07:24:02;;;;;;;1999.90;999.90;;;17.30;99.90;;;;;;5033139;28;20398;-66
2022/09/10 07:26:27;;;;;;;1999.90;999.90;;;17.40;99.90;;;;;;5033069;28;20434;-66
2022/09/10 07:28:54;;;;;;;1999.90;999.90;;;17.40;99.90;;;;;;5033062;28;20951;-66
2022/09/10 07:31:20;;;;;;;1999.90;999.90;;;17.50;99.90;;;;;;5032965;28;20516;-66
2022/09/10 07:33:46;;;;;;;1999.90;999.90;;;17.50;99.90;;;;;;5032998;28;20523;-66
2022/09/10 07:36:12;;;;;;;1999.90;999.90;;;17.50;99.90;;;;;;5032571;28;20233;-66
2022/09/10 07:38:39;;;;;;;1999.90;999.90;;;17.50;99.90;;;;;;5032822;28;20445;-66
2022/09/10 07:41:06;;;;;;;1999.90;999.90;;;17.50;99.90;;;;;;5032720;28;20422;-66
2022/09/10 07:43:31;;;;;;;1999.90;999.90;;;17.50;99.90;;;;;;5032791;28;20410;-66
2022/09/10 07:45:57;;;;;;;1999.90;999.90;;;17.60;99.90;;;;;;5032566;28;20469;-66
2022/09/10 07:48:24;;;;;;;1999.90;999.90;;;17.60;99.90;;;;;;5032583;28;20172;-66
2022/09/10 07:50:49;;;;;;;1999.90;999.90;;;17.60;99.90;;;;;;5032531;28;20274;-66
2022/09/10 07:53:16;;;;;;;1999.90;999.90;;;17.70;99.90;;;;;;5031658;28;20442;-66
2022/09/10 07:55:42;;;;;;;1999.90;999.90;;;17.70;99.90;;;;;;5032844;28;20171;-67
2022/09/10 07:58:08;;;;;;;1999.90;999.90;;;17.80;99.90;;;;;;5033039;28;20451;-66
2022/09/10 08:00:34;;;;;;;1999.90;999.90;;;17.80;99.90;;;;;;5032430;28;20215;-66
2022/09/10 08:02:59;;;;;;;1999.90;999.90;;;17.70;99.90;;;;;;5032505;28;20403;-66
2022/09/10 08:05:27;;;;;;;1999.90;999.90;;;17.50;99.90;;;;;;5032989;28;20524;-67
2022/09/10 08:07:53;;;;;;;1999.90;999.90;;;17.40;99.90;;;;;;5033360;28;20185;-67
2022/09/10 08:10:20;;;;;;;1999.90;999.90;;;17.30;99.90;;;;;;5034335;28;20431;-66
2022/09/10 08:12:46;;;;;;;1999.90;999.90;;;17.20;99.90;;;;;;5034541;28;20410;-66
2022/09/10 08:15:12;;;;;;;1999.90;999.90;;;17.20;99.90;;;;;;5034720;28;20464;-66
2022/09/10 08:17:37;;;;;;;1999.90;999.90;;;17.30;99.90;;;;;;5034227;28;20194;-67
2022/09/10 08:20:06;;;;;;;1999.90;999.90;;;17.30;99.90;;;;;;5034641;28;20233;-67
2022/09/10 08:22:33;;;;;;;1999.90;999.90;;;17.40;99.90;;;;;;5035428;28;20226;-67
2022/09/10 08:24:59;;;;;;;1999.90;999.90;;;17.40;99.90;;;;;;5035163;28;20408;-67
2022/09/10 08:27:25;;;;;;;1999.90;999.90;;;17.40;99.90;;;;;;5034614;28;20502;-67
2022/09/10 08:29:50;;;;;;;1999.90;999.90;;;17.40;99.90;;;;;;5034233;28;20450;-67
2022/09/10 08:32:16;;;;;;;1999.90;999.90;;;17.50;99.90;;;;;;5032595;28;20174;-66
2022/09/10 08:34:41;;;;;;;1999.90;999.90;;;17.50;99.90;;;;;;5033602;28;20176;-66
2022/09/10 08:37:07;;;;;;;1999.90;999.90;;;17.60;99.90;;;;;;5034038;28;20201;-67
2022/09/10 08:39:33;;;;;;;1999.90;999.90;;;17.60;99.90;;;;;;5034580;28;20225;-67
2022/09/10 08:42:04;;;;;;;1999.90;999.90;;;17.60;99.90;;;;;;5033897;28;20185;-66
2022/09/10 08:44:41;;;;;;;1999.90;999.90;;;17.60;99.90;;;;;;5034628;28;20253;-67
2022/09/10 08:47:32;;;;;;;1999.90;999.90;;;17.60;99.90;;;;;;5033202;28;20402;-66
2022/09/10 08:50:07;;;;;;;1999.90;999.90;;;17.60;99.90;;;;;;5033179;28;20411;-67
2022/09/10 08:52:42;;;;;;;1999.90;999.90;;;17.70;99.90;;;;;;5032309;28;20407;-66
2022/09/10 08:55:16;;;;;;;1999.90;999.90;;;17.70;99.90;;;;;;5032679;28;20405;-67
2022/09/10 08:57:46;;;;;;;1999.90;999.90;;;17.60;99.90;;;;;;5032527;28;20458;-67
2022/09/10 09:00:16;;;;;;;1999.90;999.90;;;17.70;99.90;;;;;;5033043;28;20435;-66
2022/09/10 09:03:11;;;;;;;1999.90;999.90;;;17.70;99.90;;;;;;5032769;28;20399;-67
2022/09/10 09:05:47;;;;;;;1999.90;999.90;;;17.70;99.90;;;;;;5036833;28;20753;-67
2022/09/10 09:08:20;;;;;;;1999.90;999.90;;;17.80;99.90;;;;;;5035800;28;20398;-66
2022/09/10 09:10:51;;;;;;;1999.90;999.90;;;17.70;99.90;;;;;;5035701;28;20969;-66
2022/09/10 09:13:30;;;;;;;1999.90;999.90;;;17.70;99.90;;;;;;5035547;28;20420;-67
2022/09/10 09:16:22;;;;;;;1999.90;999.90;;;17.80;99.90;;;;;;5035480;28;20770;-66
2022/09/10 09:18:51;;;;;;;1999.90;999.90;;;17.80;99.90;;;;;;5020736;28;20443;-66
2022/09/10 09:21:38;;;;;;;1999.90;999.90;;;17.70;99.90;;;;;;5035347;28;20986;-66
2022/09/10 09:24:31;;;;;;;1999.90;999.90;;;17.70;99.90;;;;;;5036252;28;20501;-67
2022/09/10 09:27:08;;;;;;;1999.90;999.90;;;17.70;99.90;;;;;;5024052;28;20432;-67
2022/09/10 09:29:42;;;;;;;1999.90;999.90;;;17.70;99.90;;;;;;5035488;28;20413;-66
2022/09/10 09:32:12;;;;;;;1999.90;999.90;;;17.70;99.90;;;;;;5035163;28;20506;-66
2022/09/10 09:34:53;;;;;;;1999.90;999.90;;;17.70;99.90;;;;;;5035274;28;20480;-67
2022/09/10 09:37:23;;;;;;;1999.90;999.90;;;17.70;99.90;;;;;;5034699;28;20890;-66
2022/09/10 09:39:58;;;;;;;1999.90;999.90;;;17.80;99.90;;;;;;5034986;28;20425;-66
2022/09/10 09:42:51;;;;;;;1999.90;999.90;;;17.90;99.90;;;;;;5035192;28;20491;-66
2022/09/10 09:45:24;;;;;;;1999.90;999.90;;;18.00;99.90;;;;;;5035061;28;20473;-66
2022/09/10 09:47:49;;;;;;;1999.90;999.90;;;18.10;99.90;;;;;;5034631;28;20411;-66
2022/09/10 09:50:17;;;;;;;1999.90;999.90;;;18.20;99.90;;;;;;5035213;28;20791;-67
2022/09/10 09:52:44;;;;;;;1999.90;999.90;;;18.20;99.90;;;;;;5036555;28;20420;-67
2022/09/10 09:55:32;;;;;;;1999.90;999.90;;;18.20;99.90;;;;;;5035254;28;20499;-66
2022/09/10 09:58:19;;;;;;;1999.90;999.90;;;18.30;99.90;;;;;;5035110;28;20458;-67
2022/09/10 10:00:47;;;;;;;1999.90;999.90;;;18.30;99.90;;;;;;5035871;28;20448;-67
2022/09/10 10:03:17;;;;;;;1999.90;999.90;;;18.40;99.90;;;;;;5035905;28;20793;-67
2022/09/10 10:05:43;;;;;;;1999.90;999.90;;;18.30;99.90;;;;;;5035103;28;20394;-66
2022/09/10 10:08:32;;;;;;;1999.90;999.90;;;18.30;99.90;;;;;;5034469;28;20402;-66
2022/09/10 10:10:58;;;;;;;1999.90;999.90;;;18.10;99.90;;;;;;5032708;28;20576;-66
2022/09/10 10:13:33;;;;;;;1999.90;999.90;;;18.00;99.90;;;;;;5034120;28;20490;-66
2022/09/10 10:16:19;;;;;;;1999.90;999.90;;;17.90;99.90;;;;;;5032863;28;20419;-66
2022/09/10 10:18:45;;;;;;;1999.90;999.90;;;17.90;99.90;;;;;;5034082;28;20422;-66
2022/09/10 10:21:15;;;;;;;1999.90;999.90;;;17.90;99.90;;;;;;5033915;28;20442;-66
2022/09/10 10:23:41;;;;;;;1999.90;999.90;;;17.80;99.90;;;;;;5033987;28;20180;-66
2022/09/10 10:26:30;;;;;;;1999.90;999.90;;;17.80;99.90;;;;;;5033786;28;20418;-66
2022/09/10 10:29:16;;;;;;;1999.90;999.90;;;17.80;99.90;;;;;;5033873;28;20170;-66
2022/09/10 10:31:44;;;;;;;1999.90;999.90;;;17.80;99.90;;;;;;5033695;28;20435;-66
2022/09/10 10:34:13;;;;;;;1999.90;999.90;;;17.80;99.90;;;;;;5033978;28;20908;-66
2022/09/10 10:36:58;;;;;;;1999.90;999.90;;;17.80;99.90;;;;;;5033450;28;20439;-66
2022/09/10 10:39:26;;;;;;;1999.90;999.90;;;17.90;99.90;;;;;;5033193;28;20418;-66
2022/09/10 10:41:57;;;;;;;1999.90;999.90;;;17.90;99.90;;;;;;5033542;28;20474;-66
2022/09/10 10:44:44;;;;;;;1999.90;999.90;;;17.80;99.90;;;;;;5033671;28;20419;-66
2022/09/10 10:47:33;;;;;;;1999.90;999.90;;;17.90;99.90;;;;;;5032698;28;20438;-66
2022/09/10 10:50:07;;;;;;;1999.90;999.90;;;18.00;99.90;;;;;;5033459;28;20856;-66
2022/09/10 10:53:17;;;;;;;1999.90;999.90;;;18.00;99.90;;;;;;5033371;28;20402;-66
2022/09/10 10:56:01;;;;;;;1999.90;999.90;;;18.10;99.90;;;;;;5011831;28;20426;-66
2022/09/10 10:59:03;;;;;;;1999.90;999.90;;;18.10;99.90;;;;;;5033155;28;20837;-66
2022/09/10 11:01:34;;;;;;;1999.90;999.90;;;18.20;99.90;;;;;;5032477;28;20434;-66
2022/09/10 11:04:02;;;;;;;1999.90;999.90;;;18.20;99.90;;;;;;5033384;28;20868;-66
2022/09/10 11:06:37;;;;;;;1999.90;999.90;;;18.20;99.90;;;;;;5032852;28;20399;-66
2022/09/10 11:09:26;;;;;;;1999.90;999.90;;;18.30;99.90;;;;;;5032649;28;20399;-66
2022/09/10 11:11:55;;;;;;;1999.90;999.90;;;18.30;99.90;;;;;;5033844;28;20433;-66
2022/09/10 11:14:27;;;;;;;1999.90;999.90;;;18.40;99.90;;;;;;5035628;28;20418;-66
2022/09/10 11:16:58;;;;;;;1999.90;999.90;;;18.40;99.90;;;;;;5014823;28;20534;-66
2022/09/10 11:19:30;;;;;;;1999.90;999.90;;;18.50;99.90;;;;;;5032832;28;20389;-66
2022/09/10 11:22:23;;;;;;;1999.90;999.90;;;18.60;99.90;;;;;;5032751;28;20419;-66
2022/09/10 11:25:12;;;;;;;1999.90;999.90;;;18.70;99.90;;;;;;5033021;28;20392;-66
2022/09/10 11:27:42;;;;;;;1999.90;999.90;;;18.70;99.90;;;;;;5033360;28;20412;-67
2022/09/10 11:30:15;;;;;;;1999.90;999.90;;;18.70;99.90;;;;;;5034685;28;20447;-67
2022/09/10 11:33:03;;;;;;;1999.90;999.90;;;18.60;99.90;;;;;;5034617;28;20755;-67
2022/09/10 11:35:44;;;;;;;1999.90;999.90;;;18.50;99.90;;;;;;5033282;28;20828;-67
2022/09/10 11:38:31;;;;;;;1999.90;999.90;;;18.40;99.90;;;;;;5032829;28;20453;-66
2022/09/10 11:41:22;;;;;;;1999.90;999.90;;;18.30;99.90;;;;;;5033797;28;20422;-67
2022/09/10 11:44:11;;;;;;;1999.90;999.90;;;18.30;99.90;;;;;;5034487;28;20407;-67
2022/09/10 11:47:07;;;;;;;1999.90;999.90;;;18.30;99.90;;;;;;5033690;28;20411;-67
2022/09/10 11:49:32;;;;;;;1999.90;999.90;;;18.30;99.90;;;;;;5032668;28;20414;-66
2022/09/10 11:52:00;;;;;;;1999.90;999.90;;;18.40;99.90;;;;;;5032164;28;20933;-66
2022/09/10 11:54:28;;;;;;;1999.90;999.90;;;18.40;99.90;;;;;;5033340;28;20180;-67
2022/09/10 11:56:53;;;;;;;1999.90;999.90;;;18.40;99.90;;;;;;5033609;28;20454;-66
2022/09/10 11:59:29;;;;;;;1999.90;999.90;;;18.40;99.90;;;;;;5032168;28;20457;-66
2022/09/10 12:02:01;;;;;;;1999.90;999.90;;;18.30;99.90;;;;;;5032095;28;20204;-66
2022/09/10 12:04:45;;;;;;;1999.90;999.90;;;18.40;99.90;;;;;;5032138;28;20405;-66
2022/09/10 12:07:25;;;;;;;1999.90;999.90;;;18.40;99.90;;;;;;5031871;28;20420;-66
2022/09/10 12:10:30;;;;;;;1999.90;999.90;;;18.60;99.90;;;;;;5033074;28;20413;-67
2022/09/10 12:12:56;;;;;;;1999.90;999.90;;;18.70;99.90;;;;;;5034094;28;20418;-67
2022/09/10 12:15:25;;;;;;;1999.90;999.90;;;18.90;99.90;;;;;;5033151;28;20426;-67